sensor_id;sensor_type;location;lat;lon;timestamp;pressure;altitude;pressure_sealevel;temperature;humidity
16355;BME280;8287;51.644;8.494;2023-03-01T00:02:22;101839.28;;;0.61;73.23
16355;BME280;8287;51.644;8.494;2023-03-01T00:04:48;101834.69;;;0.56;73.23
16355;BME280;8287;51.644;8.494;2023-03-01T00:07:15;101828.63;;;0.62;73.30
16355;BME280;8287;51.644;8.494;2023-03-01T00:09:42;101829.44;;;0.63;73.16
16355;BME280;8287;51.644;8.494;2023-03-01T00:12:15;101825.66;;;0.65;73.36
16355;BME280;8287;51.644;8.494;2023-03-01T00:14:42;101827.66;;;0.63;73.76
16355;BME280;8287;51.644;8.494;2023-03-01T00:17:08;101826.25;;;0.67;73.35
16355;BME280;8287;51.644;8.494;2023-03-01T00:19:35;101818.81;;;0.71;73.42
16355;BME280;8287;51.644;8.494;2023-03-01T00:22:02;101823.22;;;0.70;73.17
16355;BME280;8287;51.644;8.494;2023-03-01T00:24:28;101814.00;;;0.61;72.83
16355;BME280;8287;51.644;8.494;2023-03-01T00:26:55;101816.00;;;0.59;73.05
16355;BME280;8287;51.644;8.494;2023-03-01T00:29:24;101812.81;;;0.57;73.11
16355;BME280;8287;51.644;8.494;2023-03-01T00:31:50;101816.81;;;0.60;73.17
16355;BME280;8287;51.644;8.494;2023-03-01T00:34:17;101809.00;;;0.53;72.96
16355;BME280;8287;51.644;8.494;2023-03-01T00:36:44;101812.59;;;0.52;72.87
16355;BME280;8287;51.644;8.494;2023-03-01T00:39:13;101804.78;;;0.52;72.89
16355;BME280;8287;51.644;8.494;2023-03-01T00:41:40;101806.22;;;0.48;73.08
16355;BME280;8287;51.644;8.494;2023-03-01T00:44:06;101821.03;;;0.41;73.72
16355;BME280;8287;51.644;8.494;2023-03-01T00:46:37;101815.84;;;0.41;74.12
16355;BME280;8287;51.644;8.494;2023-03-01T00:49:04;101815.25;;;0.39;74.80
16355;BME280;8287;51.644;8.494;2023-03-01T00:51:31;101820.03;;;0.42;75.00
16355;BME280;8287;51.644;8.494;2023-03-01T00:54:01;101821.66;;;0.30;74.69
16355;BME280;8287;51.644;8.494;2023-03-01T00:56:34;101827.66;;;0.24;75.11
16355;BME280;8287;51.644;8.494;2023-03-01T00:59:06;101821.81;;;0.16;75.86
16355;BME280;8287;51.644;8.494;2023-03-01T01:01:38;101824.66;;;0.27;76.24
16355;BME280;8287;51.644;8.494;2023-03-01T01:04:06;101828.84;;;0.28;75.94
16355;BME280;8287;51.644;8.494;2023-03-01T01:06:34;101824.88;;;0.26;75.60
16355;BME280;8287;51.644;8.494;2023-03-01T01:09:03;101834.88;;;0.22;75.21
16355;BME280;8287;51.644;8.494;2023-03-01T01:11:30;101826.84;;;0.17;74.64
16355;BME280;8287;51.644;8.494;2023-03-01T01:13:57;101831.66;;;0.07;74.73
16355;BME280;8287;51.644;8.494;2023-03-01T01:16:26;101823.22;;;-0.01;75.27
16355;BME280;8287;51.644;8.494;2023-03-01T01:18:55;101833.63;;;-0.20;75.35
16355;BME280;8287;51.644;8.494;2023-03-01T01:21:23;101827.41;;;-0.13;76.05
16355;BME280;8287;51.644;8.494;2023-03-01T01:23:50;101814.59;;;-0.14;76.01
16355;BME280;8287;51.644;8.494;2023-03-01T01:26:19;101804.56;;;-0.11;76.08
16355;BME280;8287;51.644;8.494;2023-03-01T01:28:46;101799.00;;;-0.08;76.26
16355;BME280;8287;51.644;8.494;2023-03-01T01:31:14;101791.53;;;-0.17;75.92
16355;BME280;8287;51.644;8.494;2023-03-01T01:33:40;101787.53;;;-0.13;75.63
16355;BME280;8287;51.644;8.494;2023-03-01T01:36:09;101795.56;;;-0.15;76.06
16355;BME280;8287;51.644;8.494;2023-03-01T01:38:37;101792.75;;;-0.20;76.45
16355;BME280;8287;51.644;8.494;2023-03-01T01:41:05;101786.34;;;-0.24;76.06
16355;BME280;8287;51.644;8.494;2023-03-01T01:43:35;101777.91;;;-0.32;75.87
16355;BME280;8287;51.644;8.494;2023-03-01T01:46:04;101781.31;;;-0.25;76.17
16355;BME280;8287;51.644;8.494;2023-03-01T01:48:38;101780.91;;;-0.35;76.22
16355;BME280;8287;51.644;8.494;2023-03-01T01:51:09;101778.84;;;-0.46;76.57
16355;BME280;8287;51.644;8.494;2023-03-01T01:53:38;101781.84;;;-0.49;77.13
16355;BME280;8287;51.644;8.494;2023-03-01T01:56:07;101776.25;;;-0.46;77.16
16355;BME280;8287;51.644;8.494;2023-03-01T01:58:35;101766.44;;;-0.51;77.03
16355;BME280;8287;51.644;8.494;2023-03-01T02:01:04;101774.25;;;-0.51;76.82
16355;BME280;8287;51.644;8.494;2023-03-01T02:03:32;101778.66;;;-0.51;76.63
16355;BME280;8287;51.644;8.494;2023-03-01T02:06:05;101779.66;;;-0.52;76.85
16355;BME280;8287;51.644;8.494;2023-03-01T02:08:37;101783.44;;;-0.55;76.69
16355;BME280;8287;51.644;8.494;2023-03-01T02:11:05;101787.66;;;-0.60;76.58
16355;BME280;8287;51.644;8.494;2023-03-01T02:13:33;101780.84;;;-0.61;76.31
16355;BME280;8287;51.644;8.494;2023-03-01T02:16:03;101776.19;;;-0.72;76.30
16355;BME280;8287;51.644;8.494;2023-03-01T02:18:30;101783.72;;;-0.84;76.70
16355;BME280;8287;51.644;8.494;2023-03-01T02:21:08;101771.72;;;-0.91;76.86
16355;BME280;8287;51.644;8.494;2023-03-01T02:23:38;101781.28;;;-0.98;77.69
16355;BME280;8287;51.644;8.494;2023-03-01T02:26:10;101774.88;;;-1.02;77.77
16355;BME280;8287;51.644;8.494;2023-03-01T02:28:41;101778.06;;;-1.00;77.80
16355;BME280;8287;51.644;8.494;2023-03-01T02:31:10;101771.28;;;-0.95;77.56
16355;BME280;8287;51.644;8.494;2023-03-01T02:33:57;101765.22;;;-1.08;78.04
16355;BME280;8287;51.644;8.494;2023-03-01T02:36:26;101761.25;;;-1.04;78.02
16355;BME280;8287;51.644;8.494;2023-03-01T02:38:58;101762.47;;;-1.00;78.10
16355;BME280;8287;51.644;8.494;2023-03-01T02:41:28;101750.66;;;-1.03;78.06
16355;BME280;8287;51.644;8.494;2023-03-01T02:43:58;101763.03;;;-1.11;78.17
16355;BME280;8287;51.644;8.494;2023-03-01T02:46:25;101762.41;;;-1.13;78.27
16355;BME280;8287;51.644;8.494;2023-03-01T02:48:54;101764.59;;;-1.17;78.35
16355;BME280;8287;51.644;8.494;2023-03-01T02:51:34;101760.44;;;-1.11;78.60
16355;BME280;8287;51.644;8.494;2023-03-01T02:54:10;101760.78;;;-1.14;78.19
16355;BME280;8287;51.644;8.494;2023-03-01T02:56:40;101753.16;;;-1.22;78.08
16355;BME280;8287;51.644;8.494;2023-03-01T02:59:09;101756.75;;;-1.23;78.47
16355;BME280;8287;51.644;8.494;2023-03-01T03:01:36;101750.19;;;-1.19;78.54
16355;BME280;8287;51.644;8.494;2023-03-01T03:04:04;101746.59;;;-1.12;78.17
16355;BME280;8287;51.644;8.494;2023-03-01T03:06:31;101750.97;;;-1.19;78.89
16355;BME280;8287;51.644;8.494;2023-03-01T03:08:58;101742.41;;;-1.13;79.20
16355;BME280;8287;51.644;8.494;2023-03-01T03:11:25;101734.78;;;-1.14;79.03
16355;BME280;8287;51.644;8.494;2023-03-01T03:13:52;101732.81;;;-1.12;79.09
16355;BME280;8287;51.644;8.494;2023-03-01T03:16:20;101727.38;;;-1.24;78.75
16355;BME280;8287;51.644;8.494;2023-03-01T03:18:48;101731.53;;;-1.29;nan
16355;BME280;8287;51.644;8.494;2023-03-01T03:21:15;101724.09;;;-1.39;78.39
16355;BME280;8287;51.644;8.494;2023-03-01T03:23:42;101724.25;;;-1.40;78.59
16355;BME280;8287;51.644;8.494;2023-03-01T03:26:09;101719.06;;;-1.40;78.21
16355;BME280;8287;51.644;8.494;2023-03-01T03:28:38;101722.06;;;-1.43;78.53
16355;BME280;8287;51.644;8.494;2023-03-01T03:31:06;101720.47;;;-1.44;78.98
16355;BME280;8287;51.644;8.494;2023-03-01T03:33:34;101704.78;;;-1.57;78.27
16355;BME280;8287;51.644;8.494;2023-03-01T03:36:01;101708.78;;;-1.55;78.91
16355;BME280;8287;51.644;8.494;2023-03-01T03:38:27;101710.56;;;-1.62;78.63
16355;BME280;8287;51.644;8.494;2023-03-01T03:41:01;101703.78;;;-1.56;78.70
16355;BME280;8287;51.644;8.494;2023-03-01T03:43:30;101702.19;;;-1.57;78.73
16355;BME280;8287;51.644;8.494;2023-03-01T03:45:57;101709.38;;;-1.59;78.90
16355;BME280;8287;51.644;8.494;2023-03-01T03:48:24;101717.78;;;-1.57;78.96
16355;BME280;8287;51.644;8.494;2023-03-01T03:50:54;101716.47;;;-1.74;78.85
16355;BME280;8287;51.644;8.494;2023-03-01T03:53:22;101715.63;;;-1.81;79.14
16355;BME280;8287;51.644;8.494;2023-03-01T03:55:49;101712.81;;;-1.86;79.59
16355;BME280;8287;51.644;8.494;2023-03-01T03:58:17;101715.63;;;-1.81;79.93
16355;BME280;8287;51.644;8.494;2023-03-01T04:00:47;101715.69;;;-1.75;80.46
16355;BME280;8287;51.644;8.494;2023-03-01T04:03:16;101716.47;;;-1.74;80.60
16355;BME280;8287;51.644;8.494;2023-03-01T04:05:44;101714.47;;;-1.72;80.76
16355;BME280;8287;51.644;8.494;2023-03-01T04:08:13;101718.47;;;-1.76;80.66
16355;BME280;8287;51.644;8.494;2023-03-01T04:10:41;101722.22;;;-1.79;80.84
16355;BME280;8287;51.644;8.494;2023-03-01T04:13:11;101725.25;;;-1.75;80.94
16355;BME280;8287;51.644;8.494;2023-03-01T04:15:39;101726.63;;;-1.79;81.00
16355;BME280;8287;51.644;8.494;2023-03-01T04:18:06;101720.63;;;-1.80;81.18
16355;BME280;8287;51.644;8.494;2023-03-01T04:20:35;101719.00;;;-1.87;80.79
16355;BME280;8287;51.644;8.494;2023-03-01T04:23:03;101723.50;;;-1.96;81.02
16355;BME280;8287;51.644;8.494;2023-03-01T04:25:38;101731.13;;;-1.94;81.69
16355;BME280;8287;51.644;8.494;2023-03-01T04:28:05;101722.16;;;-1.92;81.74
16355;BME280;8287;51.644;8.494;2023-03-01T04:30:32;101727.34;;;-1.92;82.10
16355;BME280;8287;51.644;8.494;2023-03-01T04:33:02;101722.81;;;-1.83;82.49
16355;BME280;8287;51.644;8.494;2023-03-01T04:35:29;101722.66;;;-1.75;82.54
16355;BME280;8287;51.644;8.494;2023-03-01T04:37:56;101717.00;;;-1.85;82.17
16355;BME280;8287;51.644;8.494;2023-03-01T04:40:22;101717.19;;;-1.87;81.73
16355;BME280;8287;51.644;8.494;2023-03-01T04:42:51;101721.03;;;-1.83;81.62
16355;BME280;8287;51.644;8.494;2023-03-01T04:45:17;101717.22;;;-1.80;81.43
16355;BME280;8287;51.644;8.494;2023-03-01T04:47:46;101725.66;;;-1.78;81.17
16355;BME280;8287;51.644;8.494;2023-03-01T04:50:14;101724.94;;;-1.93;80.87
16355;BME280;8287;51.644;8.494;2023-03-01T04:52:42;101713.72;;;-1.94;81.27
16355;BME280;8287;51.644;8.494;2023-03-01T04:55:10;101721.31;;;-1.99;80.96
16355;BME280;8287;51.644;8.494;2023-03-01T04:57:37;101713.88;;;-2.02;80.93
16355;BME280;8287;51.644;8.494;2023-03-01T05:00:08;101722.66;;;-2.03;81.42
16355;BME280;8287;51.644;8.494;2023-03-01T05:02:46;101714.69;;;-2.01;81.86
16355;BME280;8287;51.644;8.494;2023-03-01T05:05:13;101707.56;;;-1.93;81.88
16355;BME280;8287;51.644;8.494;2023-03-01T05:07:40;101706.75;;;-1.93;81.79
16355;BME280;8287;51.644;8.494;2023-03-01T05:10:07;101700.88;;;-2.02;81.32
16355;BME280;8287;51.644;8.494;2023-03-01T05:12:34;101708.66;;;-2.02;81.22
16355;BME280;8287;51.644;8.494;2023-03-01T05:15:03;101713.06;;;-2.02;80.69
16355;BME280;8287;51.644;8.494;2023-03-01T05:17:33;101714.25;;;-2.05;80.93
16355;BME280;8287;51.644;8.494;2023-03-01T05:20:00;101718.31;;;-1.96;81.21
16355;BME280;8287;51.644;8.494;2023-03-01T05:22:29;101703.97;;;-1.92;80.89
16355;BME280;8287;51.644;8.494;2023-03-01T05:24:55;101711.38;;;-1.89;80.26
16355;BME280;8287;51.644;8.494;2023-03-01T05:27:22;101709.16;;;-1.92;79.85
16355;BME280;8287;51.644;8.494;2023-03-01T05:29:49;101703.91;;;-1.98;80.09
16355;BME280;8287;51.644;8.494;2023-03-01T05:32:15;101704.13;;;-2.00;80.59
16355;BME280;8287;51.644;8.494;2023-03-01T05:34:43;101695.50;;;-2.00;80.71
16355;BME280;8287;51.644;8.494;2023-03-01T05:37:11;101700.69;;;-2.00;80.05
16355;BME280;8287;51.644;8.494;2023-03-01T05:39:38;101688.84;;;-2.09;80.35
16355;BME280;8287;51.644;8.494;2023-03-01T05:42:10;101686.00;;;-2.14;80.56
16355;BME280;8287;51.644;8.494;2023-03-01T05:44:37;101693.44;;;-2.11;80.93
16355;BME280;8287;51.644;8.494;2023-03-01T05:47:04;101687.00;;;-2.15;81.54
16355;BME280;8287;51.644;8.494;2023-03-01T05:49:31;101688.44;;;-2.13;82.27
16355;BME280;8287;51.644;8.494;2023-03-01T05:51:59;101697.06;;;-2.06;82.18
16355;BME280;8287;51.644;8.494;2023-03-01T05:54:26;101698.69;;;-2.05;82.09
16355;BME280;8287;51.644;8.494;2023-03-01T05:56:52;101697.88;;;-2.05;81.85
16355;BME280;8287;51.644;8.494;2023-03-01T05:59:19;101699.41;;;-2.11;81.24
16355;BME280;8287;51.644;8.494;2023-03-01T06:01:45;101705.56;;;-2.18;80.81
16355;BME280;8287;51.644;8.494;2023-03-01T06:04:12;101707.78;;;-2.15;80.96
16355;BME280;8287;51.644;8.494;2023-03-01T06:06:39;101710.00;;;-2.33;80.19
16355;BME280;8287;51.644;8.494;2023-03-01T06:09:07;101712.69;;;-2.48;80.27
16355;BME280;8287;51.644;8.494;2023-03-01T06:11:35;101713.69;;;-2.49;80.76
16355;BME280;8287;51.644;8.494;2023-03-01T06:14:02;101712.13;;;-2.43;81.11
16355;BME280;8287;51.644;8.494;2023-03-01T06:16:28;101717.13;;;-2.42;81.16
16355;BME280;8287;51.644;8.494;2023-03-01T06:18:55;101713.28;;;-2.46;81.15
16355;BME280;8287;51.644;8.494;2023-03-01T06:21:22;101713.25;;;-2.52;81.25
16355;BME280;8287;51.644;8.494;2023-03-01T06:23:48;101711.88;;;-2.48;81.38
16355;BME280;8287;51.644;8.494;2023-03-01T06:26:16;101707.78;;;-2.57;80.96
16355;BME280;8287;51.644;8.494;2023-03-01T06:28:43;101701.44;;;-2.55;81.31
16355;BME280;8287;51.644;8.494;2023-03-01T06:31:11;101697.72;;;-2.46;81.04
16355;BME280;8287;51.644;8.494;2023-03-01T06:33:38;101697.56;;;-2.44;81.16
16355;BME280;8287;51.644;8.494;2023-03-01T06:36:05;101700.25;;;-2.31;81.49
16355;BME280;8287;51.644;8.494;2023-03-01T06:38:32;101683.28;;;-0.85;80.56
16355;BME280;8287;51.644;8.494;2023-03-01T06:40:58;101681.16;;;-1.28;77.68
16355;BME280;8287;51.644;8.494;2023-03-01T06:43:26;101686.06;;;-1.46;78.57
16355;BME280;8287;51.644;8.494;2023-03-01T06:45:53;101694.34;;;-0.63;79.43
16355;BME280;8287;51.644;8.494;2023-03-01T06:48:19;101689.28;;;0.45;76.04
16355;BME280;8287;51.644;8.494;2023-03-01T06:50:46;101678.09;;;1.26;73.10
16355;BME280;8287;51.644;8.494;2023-03-01T06:53:12;101685.13;;;1.57;69.73
16355;BME280;8287;51.644;8.494;2023-03-01T06:55:39;101684.59;;;0.73;69.99
16355;BME280;8287;51.644;8.494;2023-03-01T06:58:05;101694.03;;;0.61;70.98
16355;BME280;8287;51.644;8.494;2023-03-01T07:00:34;101691.16;;;0.12;71.66
16355;BME280;8287;51.644;8.494;2023-03-01T07:03:01;101691.38;;;-0.21;73.49
16355;BME280;8287;51.644;8.494;2023-03-01T07:05:28;101686.97;;;-0.40;74.46
16355;BME280;8287;51.644;8.494;2023-03-01T07:07:55;101687.38;;;-0.50;75.04
16355;BME280;8287;51.644;8.494;2023-03-01T07:10:22;101686.16;;;-0.60;75.93
16355;BME280;8287;51.644;8.494;2023-03-01T07:12:48;101682.72;;;-0.74;76.31
16355;BME280;8287;51.644;8.494;2023-03-01T07:15:15;101685.28;;;-0.80;76.48
16355;BME280;8287;51.644;8.494;2023-03-01T07:17:43;101673.69;;;-0.84;76.83
16355;BME280;8287;51.644;8.494;2023-03-01T07:20:12;101673.69;;;-0.84;77.17
16355;BME280;8287;51.644;8.494;2023-03-01T07:22:40;101664.88;;;-0.90;77.25
16355;BME280;8287;51.644;8.494;2023-03-01T07:25:08;101668.06;;;-0.94;77.96
16355;BME280;8287;51.644;8.494;2023-03-01T07:27:34;101663.66;;;-0.94;78.40
16355;BME280;8287;51.644;8.494;2023-03-01T07:30:02;101662.25;;;-0.96;78.64
16355;BME280;8287;51.644;8.494;2023-03-01T07:32:28;101666.06;;;-0.92;79.05
16355;BME280;8287;51.644;8.494;2023-03-01T07:34:56;101659.66;;;-0.96;79.01
16355;BME280;8287;51.644;8.494;2023-03-01T07:37:23;101662.06;;;-0.95;79.50
16355;BME280;8287;51.644;8.494;2023-03-01T07:39:50;101661.09;;;-0.87;79.69
16355;BME280;8287;51.644;8.494;2023-03-01T07:42:16;101664.47;;;-0.80;79.85
16355;BME280;8287;51.644;8.494;2023-03-01T07:44:43;101662.50;;;-0.72;79.86
16355;BME280;8287;51.644;8.494;2023-03-01T07:47:09;101659.53;;;-0.62;80.05
16355;BME280;8287;51.644;8.494;2023-03-01T07:49:36;101657.34;;;-0.52;79.82
16355;BME280;8287;51.644;8.494;2023-03-01T07:52:04;101644.50;;;-0.28;79.29
16355;BME280;8287;51.644;8.494;2023-03-01T07:54:31;101655.28;;;0.01;78.39
16355;BME280;8287;51.644;8.494;2023-03-01T07:56:58;101653.63;;;0.33;77.37
16355;BME280;8287;51.644;8.494;2023-03-01T07:59:24;101648.31;;;0.65;76.34
16355;BME280;8287;51.644;8.494;2023-03-01T08:01:54;101653.56;;;0.96;75.22
16355;BME280;8287;51.644;8.494;2023-03-01T08:04:21;101645.81;;;1.21;74.17
16355;BME280;8287;51.644;8.494;2023-03-01T08:06:48;101648.69;;;1.37;72.63
16355;BME280;8287;51.644;8.494;2023-03-01T08:09:16;101650.69;;;1.66;71.85
16355;BME280;8287;51.644;8.494;2023-03-01T08:11:42;101649.81;;;1.97;71.20
16355;BME280;8287;51.644;8.494;2023-03-01T08:14:09;101649.56;;;2.05;69.63
16355;BME280;8287;51.644;8.494;2023-03-01T08:16:36;101641.34;;;2.19;69.65
16355;BME280;8287;51.644;8.494;2023-03-01T08:19:04;101641.44;;;2.31;69.12
16355;BME280;8287;51.644;8.494;2023-03-01T08:21:31;101646.28;;;2.63;68.18
16355;BME280;8287;51.644;8.494;2023-03-01T08:23:59;101640.97;;;2.88;67.40
16355;BME280;8287;51.644;8.494;2023-03-01T08:26:28;101624.66;;;3.15;67.31
16355;BME280;8287;51.644;8.494;2023-03-01T08:28:54;101631.53;;;3.39;66.94
16355;BME280;8287;51.644;8.494;2023-03-01T08:31:23;101635.22;;;3.61;67.05
16355;BME280;8287;51.644;8.494;2023-03-01T08:33:53;101633.66;;;3.83;66.28
16355;BME280;8287;51.644;8.494;2023-03-01T08:36:21;101629.19;;;3.95;65.18
16355;BME280;8287;51.644;8.494;2023-03-01T08:38:48;101637.88;;;4.07;65.18
16355;BME280;8287;51.644;8.494;2023-03-01T08:41:14;101628.63;;;3.93;63.57
16355;BME280;8287;51.644;8.494;2023-03-01T08:43:42;101634.31;;;4.01;64.15
16355;BME280;8287;51.644;8.494;2023-03-01T08:46:10;101634.84;;;4.26;64.33
16355;BME280;8287;51.644;8.494;2023-03-01T08:48:36;101635.63;;;4.50;64.89
16355;BME280;8287;51.644;8.494;2023-03-01T08:51:07;101638.81;;;4.52;64.46
16355;BME280;8287;51.644;8.494;2023-03-01T08:53:34;101632.84;;;4.68;63.30
16355;BME280;8287;51.644;8.494;2023-03-01T08:56:01;101640.91;;;4.78;63.32
16355;BME280;8287;51.644;8.494;2023-03-01T08:58:29;101628.25;;;4.75;61.48
16355;BME280;8287;51.644;8.494;2023-03-01T09:00:57;101626.56;;;4.97;63.14
16355;BME280;8287;51.644;8.494;2023-03-01T09:03:24;101625.25;;;5.11;62.49
16355;BME280;8287;51.644;8.494;2023-03-01T09:05:51;101618.00;;;5.18;62.97
16355;BME280;8287;51.644;8.494;2023-03-01T09:08:18;101622.13;;;5.14;61.97
16355;BME280;8287;51.644;8.494;2023-03-01T09:10:45;101613.63;;;5.23;62.78
16355;BME280;8287;51.644;8.494;2023-03-01T09:13:12;101613.41;;;5.25;62.58
16355;BME280;8287;51.644;8.494;2023-03-01T09:15:39;101610.19;;;5.23;63.15
16355;BME280;8287;51.644;8.494;2023-03-01T09:18:10;101600.50;;;5.23;63.12
16355;BME280;8287;51.644;8.494;2023-03-01T09:20:50;101610.44;;;5.38;62.93
16355;BME280;8287;51.644;8.494;2023-03-01T09:23:20;101600.34;;;5.30;64.04
16355;BME280;8287;51.644;8.494;2023-03-01T09:25:47;101605.22;;;5.54;63.41
16355;BME280;8287;51.644;8.494;2023-03-01T09:28:14;101603.75;;;5.47;62.92
16355;BME280;8287;51.644;8.494;2023-03-01T09:30:40;101596.22;;;5.67;62.80
16355;BME280;8287;51.644;8.494;2023-03-01T09:33:08;101593.16;;;5.75;62.79
16355;BME280;8287;51.644;8.494;2023-03-01T09:35:39;101592.63;;;5.89;62.66
16355;BME280;8287;51.644;8.494;2023-03-01T09:38:11;101597.59;;;6.07;62.40
16355;BME280;8287;51.644;8.494;2023-03-01T09:40:42;101592.63;;;6.11;61.05
16355;BME280;8287;51.644;8.494;2023-03-01T09:43:18;101584.78;;;6.16;61.34
16355;BME280;8287;51.644;8.494;2023-03-01T09:45:49;101582.66;;;6.13;58.36
16355;BME280;8287;51.644;8.494;2023-03-01T09:48:20;101588.47;;;5.77;57.07
16355;BME280;8287;51.644;8.494;2023-03-01T09:50:49;101594.03;;;5.97;57.39
16355;BME280;8287;51.644;8.494;2023-03-01T09:53:18;101589.50;;;5.76;56.06
16355;BME280;8287;51.644;8.494;2023-03-01T09:55:51;101594.59;;;5.66;56.12
16355;BME280;8287;51.644;8.494;2023-03-01T09:58:33;101583.59;;;5.85;56.00
16355;BME280;8287;51.644;8.494;2023-03-01T10:01:06;101588.41;;;5.88;56.00
16355;BME280;8287;51.644;8.494;2023-03-01T10:03:42;101576.47;;;6.02;54.58
16355;BME280;8287;51.644;8.494;2023-03-01T10:06:14;101587.34;;;5.89;54.61
16355;BME280;8287;51.644;8.494;2023-03-01T10:08:49;101573.25;;;6.17;52.76
16355;BME280;8287;51.644;8.494;2023-03-01T10:11:21;101562.31;;;6.25;52.60
16355;BME280;8287;51.644;8.494;2023-03-01T10:13:54;101563.47;;;6.34;52.03
16355;BME280;8287;51.644;8.494;2023-03-01T10:16:26;101576.16;;;6.63;51.11
16355;BME280;8287;51.644;8.494;2023-03-01T10:18:59;101570.22;;;6.51;52.44
16355;BME280;8287;51.644;8.494;2023-03-01T10:21:29;101567.53;;;6.67;51.34
16355;BME280;8287;51.644;8.494;2023-03-01T10:24:08;101562.72;;;6.38;51.77
16355;BME280;8287;51.644;8.494;2023-03-01T10:26:50;101560.66;;;6.66;51.55
16355;BME280;8287;51.644;8.494;2023-03-01T10:29:23;101553.19;;;7.11;50.77
16355;BME280;8287;51.644;8.494;2023-03-01T10:31:52;101553.09;;;7.01;50.40
16355;BME280;8287;51.644;8.494;2023-03-01T10:34:27;101544.25;;;6.86;50.13
16355;BME280;8287;51.644;8.494;2023-03-01T10:36:57;101538.25;;;6.64;51.40
16355;BME280;8287;51.644;8.494;2023-03-01T10:39:25;101537.03;;;7.03;51.15
16355;BME280;8287;51.644;8.494;2023-03-01T10:41:55;101531.28;;;7.42;50.97
16355;BME280;8287;51.644;8.494;2023-03-01T10:44:37;101528.72;;;7.57;50.49
16355;BME280;8287;51.644;8.494;2023-03-01T10:47:04;101529.41;;;7.38;49.42
16355;BME280;8287;51.644;8.494;2023-03-01T10:49:32;101539.53;;;7.19;49.55
16355;BME280;8287;51.644;8.494;2023-03-01T10:52:18;101521.22;;;7.39;49.46
16355;BME280;8287;51.644;8.494;2023-03-01T10:54:52;101521.13;;;7.24;49.12
16355;BME280;8287;51.644;8.494;2023-03-01T10:57:30;101524.47;;;7.15;49.83
16355;BME280;8287;51.644;8.494;2023-03-01T11:00:19;101530.59;;;7.20;50.22
16355;BME280;8287;51.644;8.494;2023-03-01T11:02:48;101525.31;;;7.57;48.72
16355;BME280;8287;51.644;8.494;2023-03-01T11:05:20;101525.44;;;7.82;48.92
16355;BME280;8287;51.644;8.494;2023-03-01T11:07:50;101531.88;;;7.54;47.75
16355;BME280;8287;51.644;8.494;2023-03-01T11:10:18;101528.31;;;7.75;48.34
16355;BME280;8287;51.644;8.494;2023-03-01T11:12:46;101522.56;;;7.88;47.18
16355;BME280;8287;51.644;8.494;2023-03-01T11:15:22;101517.81;;;7.39;48.70
16355;BME280;8287;51.644;8.494;2023-03-01T11:17:49;101511.13;;;7.68;50.21
16355;BME280;8287;51.644;8.494;2023-03-01T11:20:24;101499.31;;;7.80;49.84
16355;BME280;8287;51.644;8.494;2023-03-01T11:22:54;101500.31;;;8.36;48.50
16355;BME280;8287;51.644;8.494;2023-03-01T11:25:25;101504.31;;;8.43;46.02
16355;BME280;8287;51.644;8.494;2023-03-01T11:27:53;101498.38;;;8.11;47.57
16355;BME280;8287;51.644;8.494;2023-03-01T11:30:23;101499.81;;;8.39;47.42
16355;BME280;8287;51.644;8.494;2023-03-01T11:33:13;101504.31;;;8.48;45.88
16355;BME280;8287;51.644;8.494;2023-03-01T11:35:47;101501.25;;;8.00;46.01
16355;BME280;8287;51.644;8.494;2023-03-01T11:38:21;101496.72;;;7.85;46.82
16355;BME280;8287;51.644;8.494;2023-03-01T11:40:54;101501.69;;;8.58;47.43
16355;BME280;8287;51.644;8.494;2023-03-01T11:43:29;101500.84;;;8.38;45.97
16355;BME280;8287;51.644;8.494;2023-03-01T11:46:25;101497.38;;;8.22;46.60
16355;BME280;8287;51.644;8.494;2023-03-01T11:49:05;101493.50;;;8.55;45.30
16355;BME280;8287;51.644;8.494;2023-03-01T11:51:44;101488.19;;;8.35;46.08
16355;BME280;8287;51.644;8.494;2023-03-01T11:54:26;101483.50;;;8.67;46.04
16355;BME280;8287;51.644;8.494;2023-03-01T11:57:00;101496.34;;;8.23;44.66
16355;BME280;8287;51.644;8.494;2023-03-01T12:00:07;101482.16;;;8.59;44.15
16355;BME280;8287;51.644;8.494;2023-03-01T12:02:52;101491.16;;;8.68;45.32
16355;BME280;8287;51.644;8.494;2023-03-01T12:05:50;101474.50;;;8.63;44.73
16355;BME280;8287;51.644;8.494;2023-03-01T12:08:24;101478.47;;;8.80;46.12
16355;BME280;8287;51.644;8.494;2023-03-01T12:11:02;101474.47;;;9.28;43.55
16355;BME280;8287;51.644;8.494;2023-03-01T12:13:51;101465.53;;;8.84;42.63
16355;BME280;8287;51.644;8.494;2023-03-01T12:16:30;101466.06;;;8.86;43.18
16355;BME280;8287;51.644;8.494;2023-03-01T12:19:18;101455.63;;;9.54;44.39
16355;BME280;8287;51.644;8.494;2023-03-01T12:21:59;101436.97;;;9.89;42.67
16355;BME280;8287;51.644;8.494;2023-03-01T12:24:46;101447.97;;;10.16;41.76
16355;BME280;8287;51.644;8.494;2023-03-01T12:27:36;101441.44;;;9.93;40.78
16355;BME280;8287;51.644;8.494;2023-03-01T12:30:20;101435.59;;;10.06;42.89
16355;BME280;8287;51.644;8.494;2023-03-01T12:32:59;101437.53;;;10.39;42.86
16355;BME280;8287;51.644;8.494;2023-03-01T12:35:38;101430.88;;;10.75;42.34
16355;BME280;8287;51.644;8.494;2023-03-01T12:38:16;101426.16;;;11.24;43.04
16355;BME280;8287;51.644;8.494;2023-03-01T12:41:05;101421.97;;;10.95;42.22
16355;BME280;8287;51.644;8.494;2023-03-01T12:43:47;101425.31;;;11.29;42.37
16355;BME280;8287;51.644;8.494;2023-03-01T12:46:31;101420.91;;;11.43;40.66
16355;BME280;8287;51.644;8.494;2023-03-01T12:49:08;101411.59;;;11.45;42.05
16355;BME280;8287;51.644;8.494;2023-03-01T12:51:37;101401.06;;;11.64;41.55
16355;BME280;8287;51.644;8.494;2023-03-01T12:54:09;101410.25;;;11.71;41.11
16355;BME280;8287;51.644;8.494;2023-03-01T12:56:39;101411.47;;;11.32;39.95
16355;BME280;8287;51.644;8.494;2023-03-01T12:59:13;101400.59;;;10.81;39.47
16355;BME280;8287;51.644;8.494;2023-03-01T13:01:47;101401.78;;;11.46;40.56
16355;BME280;8287;51.644;8.494;2023-03-01T13:04:30;101395.03;;;11.77;39.90
16355;BME280;8287;51.644;8.494;2023-03-01T13:07:14;101384.66;;;11.99;39.18
16355;BME280;8287;51.644;8.494;2023-03-01T13:09:49;101387.50;;;11.84;39.77
16355;BME280;8287;51.644;8.494;2023-03-01T13:12:46;101383.34;;;11.96;39.70
16355;BME280;8287;51.644;8.494;2023-03-01T13:15:31;101379.13;;;12.14;39.07
16355;BME280;8287;51.644;8.494;2023-03-01T13:17:59;101375.81;;;12.22;40.21
16355;BME280;8287;51.644;8.494;2023-03-01T13:20:31;101377.81;;;12.30;38.82
16355;BME280;8287;51.644;8.494;2023-03-01T13:23:07;101372.75;;;12.47;39.29